Holly Ann — WDE9094 — position and weather

sailwx.info

Track history (hours):
 
Tides and Currents Weather Stations Pressure Air Temp Water Temp Dewpoint Dewpoint Depression Visibility Wind Speed Wind Dir Waves Ship Positions

Holly Ann

Owner: Manke Tug and Barge Co., Inc., Shelton, WA. More information available from US FCC via Universal Licensing System and Coast Guard Vessel Documentation Center.

Last reported at 2015-Apr-17 08:10 UTC. Time now 2015-Apr-18 15:12 UTC.
Position N 47°10' W 122°54'.

; draft 4.5 m.

Type: Towing. MMSI: 367413350.

Date/timePositionNaut miles runAvg speedWind from/ knotsBaromVisibWave heightAir tempDewpointWater temp
2015-Apr-17 08:10N 47°10' W 122°54'4 6.0
2015-Apr-17 07:27N 47°11' W 122°48'8 7.2
2015-Apr-17 06:23N 47°12' W 122°37'6 7.0
2015-Apr-17 05:33N 47°17' W 122°32'4 3.8
2015-Apr-17 04:32N 47°21' W 122°33'3 2.7
2015-Apr-17 03:33N 47°24' W 122°32'3 3.1
2015-Apr-17 02:33N 47°27' W 122°31'5 5.3
2015-Apr-17 01:33N 47°32' W 122°29'8 8.0
2015-Apr-17 00:32N 47°40' W 122°28'8 8.6
2015-Apr-16 23:33N 47°48' W 122°25'9 9.1
2015-Apr-16 22:33N 47°56' W 122°20'7 7.3
2015-Apr-16 21:33N 48°01' W 122°12'1 0.6
2015-Apr-16 20:33N 48°01' W 122°11'0 0.0
2015-Apr-16 19:33N 48°01' W 122°11'0 0.0
2015-Apr-16 18:33N 48°01' W 122°11'0 0.0
2015-Apr-16 17:33N 48°01' W 122°11'0 0.0
2015-Apr-16 16:30N 48°01' W 122°11'0 0.0
2015-Apr-16 15:19N 48°01' W 122°11'0 0.0
2015-Apr-16 14:32N 48°01' W 122°11'0 0.0
2015-Apr-16 13:30N 48°01' W 122°11'0 0.0
2015-Apr-16 12:29N 48°01' W 122°11'0 0.0
2015-Apr-16 11:30N 48°01' W 122°11'0 0.0
2015-Apr-16 10:33N 48°01' W 122°11'4 3.8
2015-Apr-16 09:33N 47°58' W 122°15'4 4.0
2015-Apr-16 08:33N 47°56' W 122°20'4 4.4
2015-Apr-16 07:33N 47°52' W 122°22'4 4.0
2015-Apr-16 06:33N 47°48' W 122°24'4 4.0
2015-Apr-16 05:33N 47°44' W 122°25'5 5.0
2015-Apr-16 04:33N 47°39' W 122°27'7 7.3
2015-Apr-16 03:33N 47°32' W 122°29'9 8.5
2015-Apr-16 02:33N 47°24' W 122°32'10 9.6
2015-Apr-16 01:33N 47°14' W 122°35'9 7.5
2015-Apr-16 00:21N 47°10' W 122°46'6 6.9
2015-Apr-15 23:31N 47°10' W 122°55'13 0.4
2015-Apr-14 18:33N 47°13' W 122°36'9 9.3
2015-Apr-14 17:33N 47°22' W 122°32'8 8.0
2015-Apr-14 16:33N 47°30' W 122°30'8 7.6
2015-Apr-14 15:33N 47°36' W 122°23'3 2.8
2015-Apr-14 14:34N 47°33' W 122°21'0 0.0
2015-Apr-14 13:33N 47°33' W 122°21'0 0.0
2015-Apr-14 12:33N 47°33' W 122°21'0 0.0
2015-Apr-14 11:33N 47°33' W 122°21'0 0.0
2015-Apr-14 10:33N 47°33' W 122°21'0 0.0
2015-Apr-14 09:33N 47°33' W 122°21'0 0.0
2015-Apr-14 08:33N 47°33' W 122°21'0 0.0
2015-Apr-14 07:33N 47°33' W 122°21'0 0.0
2015-Apr-14 06:33N 47°33' W 122°21'2 2.1
2015-Apr-14 05:33N 47°35' W 122°21'0 0.0
2015-Apr-14 04:33N 47°35' W 122°21'1 1.4
2015-Apr-14 03:33N 47°34' W 122°21'1 0.6
2015-Apr-14 02:33N 47°34' W 122°21'3 2.5
2015-Apr-14 01:33N 47°35' W 122°25'7 6.7
2015-Apr-14 00:33N 47°29' W 122°30'8 8.2
2015-Apr-13 23:33N 47°21' W 122°32'9 9.0
2015-Apr-13 22:33N 47°13' W 122°36'7 7.4
2015-Apr-13 21:32N 47°10' W 122°46'7 5.5
2015-Apr-13 20:15N 47°12' W 122°56'  
2015-Apr-11 03:33N 47°13' W 122°36'1010.2
2015-Apr-11 02:33N 47°23' W 122°32'8 8.0
2015-Apr-11 01:33N 47°31' W 122°30'7 7.0
2015-Apr-11 00:34N 47°35' W 122°22'1 1.3
2015-Apr-10 23:33N 47°34' W 122°21'0 0.0
2015-Apr-10 22:29N 47°34' W 122°21'0 0.0
2015-Apr-10 21:33N 47°34' W 122°21'0 0.0
2015-Apr-10 20:33N 47°34' W 122°21'0 0.0
2015-Apr-10 19:33N 47°34' W 122°21'0 0.0
2015-Apr-10 18:33N 47°34' W 122°21'0 0.0
2015-Apr-10 17:33N 47°34' W 122°21'0 0.0
2015-Apr-10 16:33N 47°34' W 122°21'0 0.0
2015-Apr-10 15:33N 47°34' W 122°21'0 0.0
2015-Apr-10 14:33N 47°34' W 122°21'0 0.0
2015-Apr-10 13:33N 47°34' W 122°21'0 0.0
2015-Apr-10 12:32N 47°34' W 122°21'3 2.6
2015-Apr-10 11:33N 47°36' W 122°24'7 7.5
2015-Apr-10 10:33N 47°30' W 122°30'8 7.9
2015-Apr-10 09:33N 47°22' W 122°32'9 8.6
2015-Apr-10 08:33N 47°13' W 122°35'9 7.1
2015-Apr-10 07:20N 47°10' W 122°47'5 6.5
2015-Apr-10 06:31N 47°10' W 122°54'2 0.1
2015-Apr-08 12:19N 47°12' W 122°56'5 6.3
2015-Apr-08 11:33N 47°11' W 122°49'8 7.7
2015-Apr-08 10:30N 47°12' W 122°37'8 8.0
2015-Apr-08 09:34N 47°19' W 122°33'8 7.7
2015-Apr-08 08:33N 47°27' W 122°31'7 7.3
2015-Apr-08 07:34N 47°34' W 122°28'8 8.1
2015-Apr-08 06:33N 47°42' W 122°28'927.3
2015-Apr-08 06:14N 47°50' W 122°24'2 3.0
2015-Apr-08 05:34N 47°48' W 122°25'7 7.1
2015-Apr-08 04:33N 47°55' W 122°21'7 6.5
2015-Apr-08 03:34N 47°59' W 122°14'3 0.9
2015-Apr-08 00:29N 48°01' W 122°11'0 0.1
2015-Apr-07 23:33N 48°01' W 122°11'0 0.0
2015-Apr-07 22:34N 48°01' W 122°11'0 0.0
2015-Apr-07 21:30N 48°01' W 122°11'0 0.0
2015-Apr-07 19:32N 48°01' W 122°11'0 0.0
2015-Apr-07 18:31N 48°01' W 122°11'0 0.0
2015-Apr-07 17:23N 48°01' W 122°11'0 0.0
2015-Apr-07 16:30N 48°01' W 122°11'0 0.0
2015-Apr-07 15:11N 48°01' W 122°11'0 0.1
2015-Apr-07 14:33N 48°01' W 122°11'2 1.7
2015-Apr-07 13:34N 48°00' W 122°13'4 3.9
2015-Apr-07 12:34N 47°58' W 122°18'7 7.1
2015-Apr-07 11:34N 47°51' W 122°23'7 6.9
2015-Apr-07 10:33N 47°45' W 122°25'7 6.8
2015-Apr-07 09:34N 47°38' W 122°27'7 6.9
2015-Apr-07 08:33N 47°31' W 122°29'  
Track history (hours):
 
Tides and Currents Weather Stations Pressure Air Temp Water Temp Dewpoint Dewpoint Depression Visibility Wind Speed Wind Dir Waves Ship Positions

Holly Ann

Owner: Manke Tug and Barge Co., Inc., Shelton, WA. More information available from US FCC via Universal Licensing System and Coast Guard Vessel Documentation Center.

Last reported at 2015-Apr-17 08:10 UTC. Time now 2015-Apr-18 15:12 UTC.
Position N 47°10' W 122°54'.

; draft 4.5 m.

Type: Towing. MMSI: 367413350.

Date/timePositionNaut miles runAvg speedWind from/ knotsBaromVisibWave heightAir tempDewpointWater temp
2015-Apr-17 08:10N 47°10' W 122°54'4 6.0
2015-Apr-17 07:27N 47°11' W 122°48'8 7.2
2015-Apr-17 06:23N 47°12' W 122°37'6 7.0
2015-Apr-17 05:33N 47°17' W 122°32'4 3.8
2015-Apr-17 04:32N 47°21' W 122°33'3 2.7
2015-Apr-17 03:33N 47°24' W 122°32'3 3.1
2015-Apr-17 02:33N 47°27' W 122°31'5 5.3
2015-Apr-17 01:33N 47°32' W 122°29'8 8.0
2015-Apr-17 00:32N 47°40' W 122°28'8 8.6
2015-Apr-16 23:33N 47°48' W 122°25'9 9.1
2015-Apr-16 22:33N 47°56' W 122°20'7 7.3
2015-Apr-16 21:33N 48°01' W 122°12'1 0.6
2015-Apr-16 20:33N 48°01' W 122°11'0 0.0
2015-Apr-16 19:33N 48°01' W 122°11'0 0.0
2015-Apr-16 18:33N 48°01' W 122°11'0 0.0
2015-Apr-16 17:33N 48°01' W 122°11'0 0.0
2015-Apr-16 16:30N 48°01' W 122°11'0 0.0
2015-Apr-16 15:19N 48°01' W 122°11'0 0.0
2015-Apr-16 14:32N 48°01' W 122°11'0 0.0
2015-Apr-16 13:30N 48°01' W 122°11'0 0.0
2015-Apr-16 12:29N 48°01' W 122°11'0 0.0
2015-Apr-16 11:30N 48°01' W 122°11'0 0.0
2015-Apr-16 10:33N 48°01' W 122°11'4 3.8
2015-Apr-16 09:33N 47°58' W 122°15'4 4.0
2015-Apr-16 08:33N 47°56' W 122°20'4 4.4
2015-Apr-16 07:33N 47°52' W 122°22'4 4.0
2015-Apr-16 06:33N 47°48' W 122°24'4 4.0
2015-Apr-16 05:33N 47°44' W 122°25'5 5.0
2015-Apr-16 04:33N 47°39' W 122°27'7 7.3
2015-Apr-16 03:33N 47°32' W 122°29'9 8.5
2015-Apr-16 02:33N 47°24' W 122°32'10 9.6
2015-Apr-16 01:33N 47°14' W 122°35'9 7.5
2015-Apr-16 00:21N 47°10' W 122°46'6 6.9
2015-Apr-15 23:31N 47°10' W 122°55'13 0.4
2015-Apr-14 18:33N 47°13' W 122°36'9 9.3
2015-Apr-14 17:33N 47°22' W 122°32'8 8.0
2015-Apr-14 16:33N 47°30' W 122°30'8 7.6
2015-Apr-14 15:33N 47°36' W 122°23'3 2.8
2015-Apr-14 14:34N 47°33' W 122°21'0 0.0
2015-Apr-14 13:33N 47°33' W 122°21'0 0.0
2015-Apr-14 12:33N 47°33' W 122°21'0 0.0
2015-Apr-14 11:33N 47°33' W 122°21'0 0.0
2015-Apr-14 10:33N 47°33' W 122°21'0 0.0
2015-Apr-14 09:33N 47°33' W 122°21'0 0.0
2015-Apr-14 08:33N 47°33' W 122°21'0 0.0
2015-Apr-14 07:33N 47°33' W 122°21'0 0.0
2015-Apr-14 06:33N 47°33' W 122°21'2 2.1
2015-Apr-14 05:33N 47°35' W 122°21'0 0.0
2015-Apr-14 04:33N 47°35' W 122°21'1 1.4
2015-Apr-14 03:33N 47°34' W 122°21'1 0.6
2015-Apr-14 02:33N 47°34' W 122°21'3 2.5
2015-Apr-14 01:33N 47°35' W 122°25'7 6.7
2015-Apr-14 00:33N 47°29' W 122°30'8 8.2
2015-Apr-13 23:33N 47°21' W 122°32'9 9.0
2015-Apr-13 22:33N 47°13' W 122°36'7 7.4
2015-Apr-13 21:32N 47°10' W 122°46'7 5.5
2015-Apr-13 20:15N 47°12' W 122°56'  
2015-Apr-11 03:33N 47°13' W 122°36'1010.2
2015-Apr-11 02:33N 47°23' W 122°32'8 8.0
2015-Apr-11 01:33N 47°31' W 122°30'7 7.0
2015-Apr-11 00:34N 47°35' W 122°22'1 1.3
2015-Apr-10 23:33N 47°34' W 122°21'0 0.0
2015-Apr-10 22:29N 47°34' W 122°21'0 0.0
2015-Apr-10 21:33N 47°34' W 122°21'0 0.0
2015-Apr-10 20:33N 47°34' W 122°21'0 0.0
2015-Apr-10 19:33N 47°34' W 122°21'0 0.0
2015-Apr-10 18:33N 47°34' W 122°21'0 0.0
2015-Apr-10 17:33N 47°34' W 122°21'0 0.0
2015-Apr-10 16:33N 47°34' W 122°21'0 0.0
2015-Apr-10 15:33N 47°34' W 122°21'0 0.0
2015-Apr-10 14:33N 47°34' W 122°21'0 0.0
2015-Apr-10 13:33N 47°34' W 122°21'0 0.0
2015-Apr-10 12:32N 47°34' W 122°21'3 2.6
2015-Apr-10 11:33N 47°36' W 122°24'7 7.5
2015-Apr-10 10:33N 47°30' W 122°30'8 7.9
2015-Apr-10 09:33N 47°22' W 122°32'9 8.6
2015-Apr-10 08:33N 47°13' W 122°35'9 7.1
2015-Apr-10 07:20N 47°10' W 122°47'5 6.5
2015-Apr-10 06:31N 47°10' W 122°54'2 0.1
2015-Apr-08 12:19N 47°12' W 122°56'5 6.3
2015-Apr-08 11:33N 47°11' W 122°49'8 7.7
2015-Apr-08 10:30N 47°12' W 122°37'8 8.0
2015-Apr-08 09:34N 47°19' W 122°33'8 7.7
2015-Apr-08 08:33N 47°27' W 122°31'7 7.3
2015-Apr-08 07:34N 47°34' W 122°28'8 8.1
2015-Apr-08 06:33N 47°42' W 122°28'927.3
2015-Apr-08 06:14N 47°50' W 122°24'2 3.0
2015-Apr-08 05:34N 47°48' W 122°25'7 7.1
2015-Apr-08 04:33N 47°55' W 122°21'7 6.5
2015-Apr-08 03:34N 47°59' W 122°14'3 0.9
2015-Apr-08 00:29N 48°01' W 122°11'0 0.1
2015-Apr-07 23:33N 48°01' W 122°11'0 0.0
2015-Apr-07 22:34N 48°01' W 122°11'0 0.0
2015-Apr-07 21:30N 48°01' W 122°11'0 0.0
2015-Apr-07 19:32N 48°01' W 122°11'0 0.0
2015-Apr-07 18:31N 48°01' W 122°11'0 0.0
2015-Apr-07 17:23N 48°01' W 122°11'0 0.0
2015-Apr-07 16:30N 48°01' W 122°11'0 0.0
2015-Apr-07 15:11N 48°01' W 122°11'0 0.1
2015-Apr-07 14:33N 48°01' W 122°11'2 1.7
2015-Apr-07 13:34N 48°00' W 122°13'4 3.9
2015-Apr-07 12:34N 47°58' W 122°18'7 7.1
2015-Apr-07 11:34N 47°51' W 122°23'7 6.9
2015-Apr-07 10:33N 47°45' W 122°25'7 6.8
2015-Apr-07 09:34N 47°38' W 122°27'7 6.9
2015-Apr-07 08:33N 47°31' W 122°29'  

Dump ship's entire track history